METAR Data
IDs: Format: Raw Decoded Include TAF

Data at: 1512 UTC 10 Aug 2022

KSTS 101453Z 00000KT 9SM FEW005 14/12 A3007 RMK AO2 SLP176 T01390122 53016
KSTS 101422Z 00000KT 8SM FEW005 12/11 A3006 RMK AO2 T01220111
KSTS 101353Z 00000KT 6SM BR FEW010 11/11 A3005 RMK AO2 SLP170 T01110106
KSTS 101253Z AUTO 00000KT 9SM CLR 11/10 A3003 RMK AO2 SLP164 T01110100
KSTS 101153Z AUTO 00000KT 9SM CLR 12/11 A3002 RMK AO2 SLP160 T01170106 10161 20106 53001
KSTS 101053Z AUTO 00000KT 10SM CLR 12/12 A3002 RMK AO2 SLP158 T01220117
KSTS 100953Z AUTO 16003KT 9SM CLR 13/12 A3002 RMK AO2 SLP158 T01280117
KSTS 100853Z AUTO 17003KT 10SM CLR 14/12 A3002 RMK AO2 SLP158 T01390122 50002
KSTS 100753Z AUTO 14003KT 10SM CLR 14/12 A3002 RMK AO2 SLP159 T01440122 402720100
KSTS 100653Z AUTO 15004KT 10SM CLR 15/12 A3002 RMK AO2 SLP158 T01500122
KSTS 100553Z AUTO 13004KT 10SM CLR 16/12 A3001 RMK AO2 SLP157 T01610122 10244 20156 53017
KSTS 100453Z AUTO 14004KT 10SM CLR 17/12 A2999 RMK AO2 SLP151 T01670122
KSTS 100353Z AUTO 18005KT 10SM CLR 18/13 A2997 RMK AO2 SLP144 T01830128
KSTS 100253Z 19006KT 10SM CLR 20/12 A2996 RMK AO2 SLP140 T02000122 53003
KSTS 100153Z 24008KT 10SM CLR 22/12 A2995 RMK AO2 SLP135 T02220122
KSTS 100053Z 21009KT 10SM CLR 24/12 A2995 RMK AO2 SLP136 T02390117
KSTS 092353Z 22013KT 10SM CLR 24/11 A2995 RMK AO2 SLP137 T02390106 10272 20211 58002
KSTS 092253Z 22013KT 10SM CLR 25/11 A2996 RMK AO2 SLP138 T02500106
KSTS 092153Z 21009G15KT 10SM CLR 26/11 A2995 RMK AO2 SLP136 T02610111
KSTS 092053Z 22009KT 10SM CLR 27/12 A2996 RMK AO2 SLP138 T02670122 57009
KSTS 091953Z 25006KT 10SM CLR 26/13 A2997 RMK AO2 SLP140 T02610128
KSTS 091853Z VRB05KT 10SM CLR 24/13 A2998 RMK AO2 SLP144 T02440128
KSTS 091753Z 00000KT 10SM CLR 21/13 A2998 RMK AO2 SLP147 T02060128 10217 20100 58001
KSTS 091653Z 00000KT 10SM CLR 19/13 A2999 RMK AO2 SLP149 T01890128
KSTS 091553Z 00000KT 8SM FEW008 16/13 A2999 RMK AO2 SLP151 T01560128
KSTS 091511Z 00000KT 8SM SCT004 14/13 A2999 RMK AO2 T01440128
KSTS 091453Z 00000KT 8SM BKN004 14/13 A2999 RMK AO2 SLP148 T01440128 53009
KSTS 091444Z 00000KT 6SM BR BKN004 14/12 A2999 RMK AO2 T01390122
KSTS 091430Z 00000KT 5SM BR BKN005 13/12 A2998 RMK AO2 T01330122
KSTS 091353Z 00000KT 5SM BCFG OVC004 12/11 A2998 RMK AO2 SLP144 T01220111
KSTS 091253Z AUTO 00000KT 9SM BKN004 11/10 A2997 RMK AO2 SLP142 T01060100
KSTS 091250Z AUTO 00000KT 9SM BKN004 10/09 A2997 RMK AO2
KSTS 091220Z AUTO 00000KT 3SM BR SCT005 11/11 A2996 RMK AO2 T01110111
KSTS 091216Z AUTO 00000KT 1 1/2SM BR SCT005 11/11 A2996 RMK AO2 T01110111
KSTS 091209Z AUTO 00000KT 2 1/2SM BR FEW005 11/11 A2996 RMK AO2 VIS 3/4V5 T01110111
KSTS 091153Z AUTO 00000KT 10SM CLR 12/11 A2996 RMK AO2 SLP138 T01170106 10161 20111 53001
KSTS 091111Z AUTO 27003KT 3SM BR CLR 11/11 A2996 RMK AO2 T01110106
KSTS 091102Z AUTO 00000KT 1 3/4SM BR CLR 12/11 A2996 RMK AO2 T01170111
KSTS 091053Z AUTO 00000KT 10SM CLR 12/11 A2996 RMK AO2 SLP136 T01170111
KSTS 090953Z AUTO 00000KT 10SM CLR 13/12 A2996 RMK AO2 SLP137 T01280117
KSTS 090853Z AUTO 00000KT 10SM CLR 14/12 A2996 RMK AO2 SLP137 T01390122 55000
KSTS 090753Z AUTO 00000KT 10SM CLR 14/12 A2996 RMK AO2 SLP137 T01390122 402940089
KSTS 090653Z AUTO 14004KT 10SM CLR 16/13 A2996 RMK AO2 SLP137 T01560128
KSTS 090553Z AUTO 13004KT 10SM CLR 16/13 A2996 RMK AO2 SLP137 T01610128 10278 20161 51012
KSTS 090453Z AUTO 14006KT 10SM CLR 17/13 A2995 RMK AO2 SLP137 T01720128
KSTS 090353Z AUTO 15008KT 10SM CLR 19/13 A2994 RMK AO2 SLP134 T01890128